sensor_id;sensor_type;location;lat;lon;timestamp;pressure;altitude;pressure_sealevel;temperature;humidity
7433;BME280;32233;49.500;7.764;2023-04-21T00:00:53;98131.34;;;5.37;100.00
7433;BME280;32233;49.500;7.764;2023-04-21T00:03:21;98131.28;;;5.45;100.00
7433;BME280;32233;49.500;7.764;2023-04-21T00:05:49;98134.03;;;5.29;100.00
7433;BME280;32233;49.500;7.764;2023-04-21T00:08:17;98133.28;;;5.43;100.00
7433;BME280;32233;49.500;7.764;2023-04-21T00:10:44;98130.00;;;5.41;100.00
7433;BME280;32233;49.500;7.764;2023-04-21T00:13:12;98133.50;;;5.34;100.00
7433;BME280;32233;49.500;7.764;2023-04-21T00:15:39;98130.47;;;5.22;100.00
7433;BME280;32233;49.500;7.764;2023-04-21T00:18:06;98126.22;;;5.21;100.00
7433;BME280;32233;49.500;7.764;2023-04-21T00:20:33;98120.56;;;5.09;100.00
7433;BME280;32233;49.500;7.764;2023-04-21T00:22:59;98119.75;;;4.86;100.00
7433;BME280;32233;49.500;7.764;2023-04-21T00:25:26;98110.56;;;4.90;100.00
7433;BME280;32233;49.500;7.764;2023-04-21T00:27:53;98103.78;;;4.72;100.00
7433;BME280;32233;49.500;7.764;2023-04-21T00:30:19;98101.09;;;4.58;100.00
7433;BME280;32233;49.500;7.764;2023-04-21T00:32:46;98102.34;;;4.31;100.00
7433;BME280;32233;49.500;7.764;2023-04-21T00:35:13;98097.59;;;4.34;100.00
7433;BME280;32233;49.500;7.764;2023-04-21T00:37:39;98110.00;;;4.32;100.00
7433;BME280;32233;49.500;7.764;2023-04-21T00:40:10;98108.69;;;4.36;100.00
7433;BME280;32233;49.500;7.764;2023-04-21T00:42:38;98115.53;;;4.45;100.00
7433;BME280;32233;49.500;7.764;2023-04-21T00:45:05;98108.56;;;4.30;100.00
7433;BME280;32233;49.500;7.764;2023-04-21T00:47:32;98110.34;;;4.37;100.00
7433;BME280;32233;49.500;7.764;2023-04-21T00:49:58;98101.59;;;4.53;100.00
7433;BME280;32233;49.500;7.764;2023-04-21T00:52:26;98109.84;;;4.65;100.00
7433;BME280;32233;49.500;7.764;2023-04-21T00:54:53;98107.44;;;4.63;100.00
7433;BME280;32233;49.500;7.764;2023-04-21T00:57:20;98095.25;;;4.79;100.00
7433;BME280;32233;49.500;7.764;2023-04-21T00:59:46;98102.06;;;4.88;100.00
7433;BME280;32233;49.500;7.764;2023-04-21T01:02:15;98088.72;;;4.75;100.00
7433;BME280;32233;49.500;7.764;2023-04-21T01:04:43;98087.00;;;4.90;100.00
7433;BME280;32233;49.500;7.764;2023-04-21T01:07:11;98081.81;;;4.82;100.00
7433;BME280;32233;49.500;7.764;2023-04-21T01:09:37;98082.09;;;4.56;100.00
7433;BME280;32233;49.500;7.764;2023-04-21T01:12:09;98082.28;;;4.54;100.00
7433;BME280;32233;49.500;7.764;2023-04-21T01:14:37;98086.22;;;4.50;100.00
7433;BME280;32233;49.500;7.764;2023-04-21T01:17:05;98081.59;;;4.60;100.00
7433;BME280;32233;49.500;7.764;2023-04-21T01:19:39;98084.59;;;4.49;100.00
7433;BME280;32233;49.500;7.764;2023-04-21T01:22:11;98082.19;;;4.39;100.00
7433;BME280;32233;49.500;7.764;2023-04-21T01:24:41;98074.66;;;4.36;100.00
7433;BME280;32233;49.500;7.764;2023-04-21T01:27:15;98084.22;;;4.29;100.00
7433;BME280;32233;49.500;7.764;2023-04-21T01:29:45;98083.06;;;4.23;100.00
7433;BME280;32233;49.500;7.764;2023-04-21T01:32:23;98094.34;;;4.24;100.00
7433;BME280;32233;49.500;7.764;2023-04-21T01:34:51;98088.47;;;4.22;100.00
7433;BME280;32233;49.500;7.764;2023-04-21T01:37:23;98088.31;;;4.15;100.00
7433;BME280;32233;49.500;7.764;2023-04-21T01:39:53;98080.13;;;4.27;100.00
7433;BME280;32233;49.500;7.764;2023-04-21T01:42:22;98088.31;;;4.15;100.00
7433;BME280;32233;49.500;7.764;2023-04-21T01:44:49;98089.13;;;4.16;100.00
7433;BME280;32233;49.500;7.764;2023-04-21T01:47:16;98083.00;;;4.01;100.00
7433;BME280;32233;49.500;7.764;2023-04-21T01:49:44;98084.13;;;3.98;100.00
7433;BME280;32233;49.500;7.764;2023-04-21T01:52:11;98084.44;;;4.03;100.00
7433;BME280;32233;49.500;7.764;2023-04-21T01:54:38;98079.09;;;3.96;100.00
7433;BME280;32233;49.500;7.764;2023-04-21T01:57:05;98083.66;;;3.94;100.00
7433;BME280;32233;49.500;7.764;2023-04-21T01:59:32;98090.66;;;4.02;100.00
7433;BME280;32233;49.500;7.764;2023-04-21T02:02:00;98082.03;;;3.93;100.00
7433;BME280;32233;49.500;7.764;2023-04-21T02:04:27;98091.84;;;3.91;100.00
7433;BME280;32233;49.500;7.764;2023-04-21T02:06:54;98084.94;;;3.98;100.00
7433;BME280;32233;49.500;7.764;2023-04-21T02:09:21;98083.03;;;3.84;100.00
7433;BME280;32233;49.500;7.764;2023-04-21T02:11:51;98081.59;;;3.73;100.00
7433;BME280;32233;49.500;7.764;2023-04-21T02:14:17;98095.34;;;3.67;100.00
7433;BME280;32233;49.500;7.764;2023-04-21T02:16:44;98084.03;;;3.67;100.00
7433;BME280;32233;49.500;7.764;2023-04-21T02:19:11;98086.50;;;3.77;100.00
7433;BME280;32233;49.500;7.764;2023-04-21T02:21:37;98085.00;;;3.74;100.00
7433;BME280;32233;49.500;7.764;2023-04-21T02:24:04;98086.00;;;3.65;100.00
7433;BME280;32233;49.500;7.764;2023-04-21T02:26:30;98084.88;;;3.67;100.00
7433;BME280;32233;49.500;7.764;2023-04-21T02:28:58;98091.53;;;3.78;100.00
7433;BME280;32233;49.500;7.764;2023-04-21T02:31:25;98090.91;;;3.76;100.00
7433;BME280;32233;49.500;7.764;2023-04-21T02:33:52;98095.75;;;3.87;100.00
7433;BME280;32233;49.500;7.764;2023-04-21T02:36:19;98101.69;;;3.81;100.00
7433;BME280;32233;49.500;7.764;2023-04-21T02:38:46;98098.22;;;3.89;100.00
7433;BME280;32233;49.500;7.764;2023-04-21T02:41:12;98099.03;;;3.97;100.00
7433;BME280;32233;49.500;7.764;2023-04-21T02:43:39;98102.75;;;4.03;100.00
7433;BME280;32233;49.500;7.764;2023-04-21T02:46:06;98101.13;;;4.02;100.00
7433;BME280;32233;49.500;7.764;2023-04-21T02:48:34;98101.81;;;3.96;100.00
7433;BME280;32233;49.500;7.764;2023-04-21T02:51:01;98097.69;;;4.02;100.00
7433;BME280;32233;49.500;7.764;2023-04-21T02:53:27;98101.44;;;4.07;100.00
7433;BME280;32233;49.500;7.764;2023-04-21T02:55:54;98101.28;;;4.09;100.00
7433;BME280;32233;49.500;7.764;2023-04-21T02:58:22;98102.56;;;4.13;100.00
7433;BME280;32233;49.500;7.764;2023-04-21T03:00:48;98103.69;;;4.18;100.00
7433;BME280;32233;49.500;7.764;2023-04-21T03:03:15;98096.72;;;4.03;100.00
7433;BME280;32233;49.500;7.764;2023-04-21T03:05:42;98102.75;;;4.03;100.00
7433;BME280;32233;49.500;7.764;2023-04-21T03:08:08;98104.22;;;4.06;100.00
7433;BME280;32233;49.500;7.764;2023-04-21T03:10:36;98107.00;;;4.12;100.00
7433;BME280;32233;49.500;7.764;2023-04-21T03:13:03;98105.22;;;4.05;100.00
7433;BME280;32233;49.500;7.764;2023-04-21T03:15:30;98109.75;;;4.19;100.00
7433;BME280;32233;49.500;7.764;2023-04-21T03:18:00;98113.53;;;4.16;100.00
7433;BME280;32233;49.500;7.764;2023-04-21T03:20:26;98109.09;;;4.17;100.00
7433;BME280;32233;49.500;7.764;2023-04-21T03:22:53;98110.03;;;4.24;100.00
7433;BME280;32233;49.500;7.764;2023-04-21T03:25:20;98103.22;;;4.15;100.00
7433;BME280;32233;49.500;7.764;2023-04-21T03:27:46;98115.28;;;4.24;100.00
7433;BME280;32233;49.500;7.764;2023-04-21T03:30:13;98111.69;;;4.25;100.00
7433;BME280;32233;49.500;7.764;2023-04-21T03:32:39;98109.69;;;4.35;100.00
7433;BME280;32233;49.500;7.764;2023-04-21T03:35:06;98110.53;;;4.28;100.00
7433;BME280;32233;49.500;7.764;2023-04-21T03:37:33;98110.81;;;4.41;100.00
7433;BME280;32233;49.500;7.764;2023-04-21T03:39:59;98119.19;;;4.28;100.00
7433;BME280;32233;49.500;7.764;2023-04-21T03:42:26;98115.91;;;4.34;100.00
7433;BME280;32233;49.500;7.764;2023-04-21T03:44:55;98104.75;;;4.40;100.00
7433;BME280;32233;49.500;7.764;2023-04-21T03:47:22;98102.63;;;4.36;100.00
7433;BME280;32233;49.500;7.764;2023-04-21T03:49:50;98102.00;;;4.34;100.00
7433;BME280;32233;49.500;7.764;2023-04-21T03:52:16;98100.25;;;4.26;100.00
7433;BME280;32233;49.500;7.764;2023-04-21T03:54:43;98090.63;;;4.18;100.00
7433;BME280;32233;49.500;7.764;2023-04-21T03:57:09;98093.72;;;4.22;100.00
7433;BME280;32233;49.500;7.764;2023-04-21T03:59:36;98088.66;;;4.20;100.00
7433;BME280;32233;49.500;7.764;2023-04-21T04:02:03;98087.47;;;4.23;100.00
7433;BME280;32233;49.500;7.764;2023-04-21T04:04:29;98081.25;;;4.24;100.00
7433;BME280;32233;49.500;7.764;2023-04-21T04:06:56;98075.13;;;4.09;100.00
7433;BME280;32233;49.500;7.764;2023-04-21T04:09:23;98074.94;;;4.10;100.00
7433;BME280;32233;49.500;7.764;2023-04-21T04:11:50;98080.72;;;3.97;100.00
7433;BME280;32233;49.500;7.764;2023-04-21T04:14:17;98078.38;;;4.11;100.00
7433;BME280;32233;49.500;7.764;2023-04-21T04:16:43;98081.50;;;4.06;100.00
7433;BME280;32233;49.500;7.764;2023-04-21T04:19:10;98088.34;;;4.07;100.00
7433;BME280;32233;49.500;7.764;2023-04-21T04:21:37;98080.88;;;4.04;100.00
7433;BME280;32233;49.500;7.764;2023-04-21T04:24:04;98076.47;;;3.96;100.00
7433;BME280;32233;49.500;7.764;2023-04-21T04:26:30;98090.88;;;3.92;100.00
7433;BME280;32233;49.500;7.764;2023-04-21T04:29:00;98086.59;;;3.91;100.00
7433;BME280;32233;49.500;7.764;2023-04-21T04:31:30;98088.56;;;3.97;100.00
7433;BME280;32233;49.500;7.764;2023-04-21T04:33:57;98083.66;;;3.94;100.00
7433;BME280;32233;49.500;7.764;2023-04-21T04:36:24;98090.41;;;3.81;100.00
7433;BME280;32233;49.500;7.764;2023-04-21T04:38:50;98092.34;;;3.79;100.00
7433;BME280;32233;49.500;7.764;2023-04-21T04:41:17;98095.78;;;3.79;100.00
7433;BME280;32233;49.500;7.764;2023-04-21T04:43:44;98093.53;;;3.76;100.00
7433;BME280;32233;49.500;7.764;2023-04-21T04:46:11;98090.56;;;3.71;100.00
7433;BME280;32233;49.500;7.764;2023-04-21T04:48:38;98085.84;;;3.66;100.00
7433;BME280;32233;49.500;7.764;2023-04-21T04:51:05;98083.38;;;3.73;100.00
7433;BME280;32233;49.500;7.764;2023-04-21T04:53:32;98087.34;;;3.61;100.00
7433;BME280;32233;49.500;7.764;2023-04-21T04:55:59;98090.44;;;3.48;100.00
7433;BME280;32233;49.500;7.764;2023-04-21T04:58:25;98084.25;;;3.41;100.00
7433;BME280;32233;49.500;7.764;2023-04-21T05:00:52;98085.53;;;3.53;100.00
7433;BME280;32233;49.500;7.764;2023-04-21T05:03:18;98088.63;;;3.73;100.00
7433;BME280;32233;49.500;7.764;2023-04-21T05:05:45;98096.28;;;3.75;100.00
7433;BME280;32233;49.500;7.764;2023-04-21T05:08:11;98084.88;;;3.67;100.00
7433;BME280;32233;49.500;7.764;2023-04-21T05:10:40;98084.91;;;3.51;100.00
7433;BME280;32233;49.500;7.764;2023-04-21T05:13:06;98089.66;;;3.39;100.00
7433;BME280;32233;49.500;7.764;2023-04-21T05:15:33;98089.47;;;3.33;100.00
7433;BME280;32233;49.500;7.764;2023-04-21T05:18:00;98094.53;;;3.26;100.00
7433;BME280;32233;49.500;7.764;2023-04-21T05:20:26;98097.81;;;3.28;100.00
7433;BME280;32233;49.500;7.764;2023-04-21T05:22:53;98104.66;;;3.54;100.00
7433;BME280;32233;49.500;7.764;2023-04-21T05:25:19;98102.81;;;3.70;100.00
7433;BME280;32233;49.500;7.764;2023-04-21T05:27:46;98104.63;;;3.70;100.00
7433;BME280;32233;49.500;7.764;2023-04-21T05:30:13;98101.50;;;3.83;100.00
7433;BME280;32233;49.500;7.764;2023-04-21T05:32:39;98098.19;;;4.05;100.00
7433;BME280;32233;49.500;7.764;2023-04-21T05:35:06;98098.34;;;4.04;100.00
7433;BME280;32233;49.500;7.764;2023-04-21T05:37:33;98107.38;;;3.93;100.00
7433;BME280;32233;49.500;7.764;2023-04-21T05:39:59;98112.75;;;3.91;100.00
7433;BME280;32233;49.500;7.764;2023-04-21T05:42:26;98110.47;;;3.96;100.00
7433;BME280;32233;49.500;7.764;2023-04-21T05:44:52;98106.94;;;4.29;100.00
7433;BME280;32233;49.500;7.764;2023-04-21T05:47:20;98111.97;;;4.38;100.00
7433;BME280;32233;49.500;7.764;2023-04-21T05:49:50;98115.03;;;4.50;100.00
7433;BME280;32233;49.500;7.764;2023-04-21T05:52:18;98121.31;;;5.18;100.00
7433;BME280;32233;49.500;7.764;2023-04-21T05:54:45;98125.38;;;5.66;100.00
7433;BME280;32233;49.500;7.764;2023-04-21T05:57:11;98132.34;;;5.59;100.00
7433;BME280;32233;49.500;7.764;2023-04-21T05:59:38;98122.38;;;5.32;100.00
7433;BME280;32233;49.500;7.764;2023-04-21T06:02:04;98127.66;;;5.46;100.00
7433;BME280;32233;49.500;7.764;2023-04-21T06:04:31;98130.88;;;5.34;100.00
7433;BME280;32233;49.500;7.764;2023-04-21T06:07:04;98125.63;;;5.57;100.00
7433;BME280;32233;49.500;7.764;2023-04-21T06:09:30;98124.00;;;5.33;100.00
7433;BME280;32233;49.500;7.764;2023-04-21T06:11:57;98124.09;;;5.62;100.00
7433;BME280;32233;49.500;7.764;2023-04-21T06:14:23;98122.03;;;5.87;100.00
7433;BME280;32233;49.500;7.764;2023-04-21T06:16:50;98116.53;;;5.82;100.00
7433;BME280;32233;49.500;7.764;2023-04-21T06:19:16;98128.56;;;5.91;100.00
7433;BME280;32233;49.500;7.764;2023-04-21T06:21:43;98127.53;;;5.63;100.00
7433;BME280;32233;49.500;7.764;2023-04-21T06:24:09;98124.00;;;5.93;100.00
7433;BME280;32233;49.500;7.764;2023-04-21T06:26:36;98130.44;;;5.68;100.00
7433;BME280;32233;49.500;7.764;2023-04-21T06:29:02;98123.50;;;5.90;100.00
7433;BME280;32233;49.500;7.764;2023-04-21T06:31:29;98128.88;;;6.56;100.00
7433;BME280;32233;49.500;7.764;2023-04-21T06:33:56;98122.38;;;6.22;100.00
7433;BME280;32233;49.500;7.764;2023-04-21T06:36:22;98124.56;;;6.33;100.00
7433;BME280;32233;49.500;7.764;2023-04-21T06:38:49;98129.97;;;6.61;100.00
7433;BME280;32233;49.500;7.764;2023-04-21T06:41:16;98122.91;;;6.62;100.00
7433;BME280;32233;49.500;7.764;2023-04-21T06:43:43;98126.75;;;6.81;100.00
7433;BME280;32233;49.500;7.764;2023-04-21T06:46:09;98120.44;;;6.60;100.00
7433;BME280;32233;49.500;7.764;2023-04-21T06:48:36;98126.03;;;6.72;100.00
7433;BME280;32233;49.500;7.764;2023-04-21T06:51:03;98135.84;;;6.49;100.00
7433;BME280;32233;49.500;7.764;2023-04-21T06:53:29;98139.31;;;6.34;100.00
7433;BME280;32233;49.500;7.764;2023-04-21T06:55:56;98142.28;;;6.31;100.00
7433;BME280;32233;49.500;7.764;2023-04-21T06:58:22;98145.72;;;6.47;100.00
7433;BME280;32233;49.500;7.764;2023-04-21T07:00:49;98136.47;;;8.22;100.00
7433;BME280;32233;49.500;7.764;2023-04-21T07:03:16;98147.91;;;8.71;90.09
7433;BME280;32233;49.500;7.764;2023-04-21T07:05:43;98142.75;;;7.65;92.83
7433;BME280;32233;49.500;7.764;2023-04-21T07:08:09;98149.81;;;6.85;97.55
7433;BME280;32233;49.500;7.764;2023-04-21T07:10:36;98146.63;;;6.54;100.00
7433;BME280;32233;49.500;7.764;2023-04-21T07:13:02;98150.53;;;6.43;100.00
7433;BME280;32233;49.500;7.764;2023-04-21T07:15:29;98153.06;;;6.66;100.00
7433;BME280;32233;49.500;7.764;2023-04-21T07:17:55;98155.22;;;6.62;100.00
7433;BME280;32233;49.500;7.764;2023-04-21T07:20:24;98148.88;;;6.57;100.00
7433;BME280;32233;49.500;7.764;2023-04-21T07:22:51;98150.13;;;6.61;98.70
7433;BME280;32233;49.500;7.764;2023-04-21T07:25:17;98149.59;;;7.02;97.01
7433;BME280;32233;49.500;7.764;2023-04-21T07:27:44;98141.31;;;8.18;92.09
7433;BME280;32233;49.500;7.764;2023-04-21T07:30:11;98147.97;;;8.90;87.84
7433;BME280;32233;49.500;7.764;2023-04-21T07:32:38;98141.50;;;11.67;70.61
7433;BME280;32233;49.500;7.764;2023-04-21T07:35:05;98134.06;;;12.99;64.60
7433;BME280;32233;49.500;7.764;2023-04-21T07:37:32;98128.50;;;13.19;61.79
7433;BME280;32233;49.500;7.764;2023-04-21T07:39:58;98135.38;;;11.98;65.84
7433;BME280;32233;49.500;7.764;2023-04-21T07:42:25;98133.91;;;11.52;68.99
7433;BME280;32233;49.500;7.764;2023-04-21T07:44:52;98130.88;;;13.09;63.55
7433;BME280;32233;49.500;7.764;2023-04-21T07:47:19;98131.75;;;12.18;65.67
7433;BME280;32233;49.500;7.764;2023-04-21T07:49:45;98130.63;;;12.99;62.10
7433;BME280;32233;49.500;7.764;2023-04-21T07:52:12;98119.91;;;11.45;67.58
7433;BME280;32233;49.500;7.764;2023-04-21T07:54:38;98120.53;;;11.09;71.28
7433;BME280;32233;49.500;7.764;2023-04-21T07:57:05;98115.72;;;12.49;66.47
7433;BME280;32233;49.500;7.764;2023-04-21T07:59:32;98109.44;;;13.22;61.87
7433;BME280;32233;49.500;7.764;2023-04-21T08:01:58;98108.81;;;11.55;68.43
7433;BME280;32233;49.500;7.764;2023-04-21T08:04:25;98115.53;;;11.26;68.87
7433;BME280;32233;49.500;7.764;2023-04-21T08:06:52;98110.63;;;12.48;66.57
7433;BME280;32233;49.500;7.764;2023-04-21T08:09:19;98114.81;;;12.55;65.15
7433;BME280;32233;49.500;7.764;2023-04-21T08:11:46;98110.13;;;11.14;70.19
7433;BME280;32233;49.500;7.764;2023-04-21T08:14:13;98109.44;;;11.57;69.73
7433;BME280;32233;49.500;7.764;2023-04-21T08:16:39;98104.22;;;12.00;70.01
7433;BME280;32233;49.500;7.764;2023-04-21T08:19:08;98093.16;;;13.07;64.87
7433;BME280;32233;49.500;7.764;2023-04-21T08:21:35;98089.38;;;14.27;59.45
7433;BME280;32233;49.500;7.764;2023-04-21T08:24:01;98083.53;;;14.94;55.39
7433;BME280;32233;49.500;7.764;2023-04-21T08:26:28;98080.84;;;15.68;53.13
7433;BME280;32233;49.500;7.764;2023-04-21T08:28:55;98076.69;;;15.94;53.13
7433;BME280;32233;49.500;7.764;2023-04-21T08:31:22;98077.56;;;13.41;60.01
7433;BME280;32233;49.500;7.764;2023-04-21T08:33:49;98079.72;;;14.61;55.50
7433;BME280;32233;49.500;7.764;2023-04-21T08:36:27;98073.03;;;15.16;54.78
7433;BME280;32233;49.500;7.764;2023-04-21T08:38:55;98064.34;;;15.54;53.82
7433;BME280;32233;49.500;7.764;2023-04-21T08:41:23;98066.59;;;15.28;53.67
7433;BME280;32233;49.500;7.764;2023-04-21T08:43:49;98062.41;;;15.32;54.78
7433;BME280;32233;49.500;7.764;2023-04-21T08:46:16;98066.03;;;14.98;55.08
7433;BME280;32233;49.500;7.764;2023-04-21T08:48:45;98059.22;;;16.42;51.86
7433;BME280;32233;49.500;7.764;2023-04-21T08:51:13;98061.00;;;16.36;50.52
7433;BME280;32233;49.500;7.764;2023-04-21T08:53:43;98046.41;;;16.88;49.11
7433;BME280;32233;49.500;7.764;2023-04-21T08:56:09;98044.41;;;16.12;50.89
7433;BME280;32233;49.500;7.764;2023-04-21T08:58:37;98054.94;;;16.02;51.37
7433;BME280;32233;49.500;7.764;2023-04-21T09:01:04;98042.19;;;16.48;50.81
7433;BME280;32233;49.500;7.764;2023-04-21T09:03:31;98029.03;;;15.97;50.35
7433;BME280;32233;49.500;7.764;2023-04-21T09:06:06;98033.03;;;16.39;52.17
7433;BME280;32233;49.500;7.764;2023-04-21T09:08:41;98029.97;;;17.65;50.67
7433;BME280;32233;49.500;7.764;2023-04-21T09:11:07;98029.69;;;17.29;47.30
7433;BME280;32233;49.500;7.764;2023-04-21T09:13:35;98031.75;;;16.90;50.57
7433;BME280;32233;49.500;7.764;2023-04-21T09:16:15;98033.41;;;17.23;49.51
7433;BME280;32233;49.500;7.764;2023-04-21T09:18:43;98028.44;;;17.37;47.86
7433;BME280;32233;49.500;7.764;2023-04-21T09:21:11;98028.09;;;17.66;47.79
7433;BME280;32233;49.500;7.764;2023-04-21T09:23:51;98033.25;;;17.08;48.62
7433;BME280;32233;49.500;7.764;2023-04-21T09:26:20;98024.41;;;16.75;47.30
7433;BME280;32233;49.500;7.764;2023-04-21T09:28:50;98017.22;;;16.81;49.82
7433;BME280;32233;49.500;7.764;2023-04-21T09:31:21;98022.09;;;16.40;49.53
7433;BME280;32233;49.500;7.764;2023-04-21T09:33:56;98019.88;;;16.10;48.29
7433;BME280;32233;49.500;7.764;2023-04-21T09:36:28;98023.53;;;15.65;50.10
7433;BME280;32233;49.500;7.764;2023-04-21T09:39:01;98015.53;;;15.15;49.52
7433;BME280;32233;49.500;7.764;2023-04-21T09:41:31;98027.22;;;15.64;50.50
7433;BME280;32233;49.500;7.764;2023-04-21T09:43:58;98015.13;;;14.77;51.16
7433;BME280;32233;49.500;7.764;2023-04-21T09:46:34;98008.25;;;15.44;50.59
7433;BME280;32233;49.500;7.764;2023-04-21T09:49:03;98006.09;;;16.18;49.56
7433;BME280;32233;49.500;7.764;2023-04-21T09:51:30;98008.41;;;16.09;48.90
7433;BME280;32233;49.500;7.764;2023-04-21T09:54:20;98003.72;;;15.44;50.75
7433;BME280;32233;49.500;7.764;2023-04-21T09:56:52;97994.84;;;16.33;49.15
7433;BME280;32233;49.500;7.764;2023-04-21T09:59:24;98003.09;;;16.58;49.95
7433;BME280;32233;49.500;7.764;2023-04-21T10:01:52;97999.59;;;16.31;47.93
7433;BME280;32233;49.500;7.764;2023-04-21T10:04:20;97998.16;;;16.94;46.30
7433;BME280;32233;49.500;7.764;2023-04-21T10:06:50;97995.50;;;16.94;46.17
7433;BME280;32233;49.500;7.764;2023-04-21T10:09:20;98002.63;;;16.40;46.84
7433;BME280;32233;49.500;7.764;2023-04-21T10:11:47;97990.13;;;16.18;47.91
7433;BME280;32233;49.500;7.764;2023-04-21T10:14:14;97987.81;;;15.66;49.98
7433;BME280;32233;49.500;7.764;2023-04-21T10:16:41;97982.75;;;16.52;48.29
7433;BME280;32233;49.500;7.764;2023-04-21T10:19:25;97979.31;;;16.79;48.14
7433;BME280;32233;49.500;7.764;2023-04-21T10:21:55;97969.28;;;17.61;46.43
7433;BME280;32233;49.500;7.764;2023-04-21T10:24:28;97976.19;;;18.04;45.53
7433;BME280;32233;49.500;7.764;2023-04-21T10:26:58;97976.59;;;18.33;44.52
7433;BME280;32233;49.500;7.764;2023-04-21T10:29:29;97968.88;;;17.79;45.34
7433;BME280;32233;49.500;7.764;2023-04-21T10:32:09;97950.59;;;18.23;44.31
7433;BME280;32233;49.500;7.764;2023-04-21T10:34:38;97959.72;;;18.27;43.60
7433;BME280;32233;49.500;7.764;2023-04-21T10:37:08;97953.78;;;18.15;44.31
7433;BME280;32233;49.500;7.764;2023-04-21T10:39:51;97945.31;;;18.39;42.35
7433;BME280;32233;49.500;7.764;2023-04-21T10:42:23;97950.44;;;17.82;44.10
7433;BME280;32233;49.500;7.764;2023-04-21T10:44:51;97946.47;;;19.14;42.23
7433;BME280;32233;49.500;7.764;2023-04-21T10:47:34;97931.50;;;19.03;41.55
7433;BME280;32233;49.500;7.764;2023-04-21T10:50:21;97932.78;;;18.60;41.81
7433;BME280;32233;49.500;7.764;2023-04-21T10:53:07;97928.31;;;17.97;43.03
7433;BME280;32233;49.500;7.764;2023-04-21T10:55:34;97931.28;;;18.01;43.66
7433;BME280;32233;49.500;7.764;2023-04-21T10:58:02;97932.25;;;18.63;41.75
7433;BME280;32233;49.500;7.764;2023-04-21T11:00:29;97918.63;;;18.79;41.94
7433;BME280;32233;49.500;7.764;2023-04-21T11:03:01;97915.91;;;18.64;41.48
7433;BME280;32233;49.500;7.764;2023-04-21T11:05:29;97910.31;;;18.66;41.79
7433;BME280;32233;49.500;7.764;2023-04-21T11:08:13;97904.19;;;18.96;42.10
7433;BME280;32233;49.500;7.764;2023-04-21T11:10:50;97899.53;;;20.22;39.98
7433;BME280;32233;49.500;7.764;2023-04-21T11:13:42;97900.84;;;20.74;38.60
7433;BME280;32233;49.500;7.764;2023-04-21T11:16:09;97904.94;;;19.32;37.90
7433;BME280;32233;49.500;7.764;2023-04-21T11:18:37;97922.06;;;18.65;40.88
7433;BME280;32233;49.500;7.764;2023-04-21T11:21:09;97906.59;;;18.87;40.14
7433;BME280;32233;49.500;7.764;2023-04-21T11:23:39;97906.25;;;20.25;37.36
7433;BME280;32233;49.500;7.764;2023-04-21T11:26:08;97890.94;;;21.04;36.99
7433;BME280;32233;49.500;7.764;2023-04-21T11:28:35;97886.03;;;20.82;37.07
7433;BME280;32233;49.500;7.764;2023-04-21T11:31:01;97879.16;;;20.66;36.79
7433;BME280;32233;49.500;7.764;2023-04-21T11:33:29;97876.91;;;20.39;37.49
7433;BME280;32233;49.500;7.764;2023-04-21T11:35:55;97878.91;;;19.43;38.28
7433;BME280;32233;49.500;7.764;2023-04-21T11:38:24;97878.22;;;20.81;37.11
7433;BME280;32233;49.500;7.764;2023-04-21T11:40:50;97864.41;;;21.50;35.10
7433;BME280;32233;49.500;7.764;2023-04-21T11:43:19;97866.22;;;22.41;34.87
7433;BME280;32233;49.500;7.764;2023-04-21T11:45:49;97849.03;;;22.37;34.76
7433;BME280;32233;49.500;7.764;2023-04-21T11:48:17;97854.53;;;22.13;36.06
7433;BME280;32233;49.500;7.764;2023-04-21T11:50:49;97860.09;;;20.67;37.69
7433;BME280;32233;49.500;7.764;2023-04-21T11:53:16;97854.19;;;22.52;35.28
7433;BME280;32233;49.500;7.764;2023-04-21T11:55:44;97859.63;;;23.31;34.14
7433;BME280;32233;49.500;7.764;2023-04-21T11:58:10;97859.91;;;22.83;34.27
7433;BME280;32233;49.500;7.764;2023-04-21T12:00:44;97854.78;;;22.82;33.12
7433;BME280;32233;49.500;7.764;2023-04-21T12:03:12;97849.47;;;23.56;33.48
7433;BME280;32233;49.500;7.764;2023-04-21T12:05:39;97851.56;;;23.72;32.74
7433;BME280;32233;49.500;7.764;2023-04-21T12:08:05;97856.84;;;23.50;34.20
7433;BME280;32233;49.500;7.764;2023-04-21T12:10:32;97853.09;;;22.86;35.33
7433;BME280;32233;49.500;7.764;2023-04-21T12:12:59;97849.97;;;22.97;35.13
7433;BME280;32233;49.500;7.764;2023-04-21T12:15:28;97858.97;;;23.81;34.34
7433;BME280;32233;49.500;7.764;2023-04-21T12:17:55;97851.03;;;22.83;36.05
7433;BME280;32233;49.500;7.764;2023-04-21T12:20:23;97847.69;;;23.05;35.53
7433;BME280;32233;49.500;7.764;2023-04-21T12:22:50;97846.22;;;22.98;36.16
7433;BME280;32233;49.500;7.764;2023-04-21T12:25:17;97849.84;;;23.49;35.24
7433;BME280;32233;49.500;7.764;2023-04-21T12:27:48;97857.50;;;23.14;34.74
7433;BME280;32233;49.500;7.764;2023-04-21T12:30:15;97849.34;;;22.54;35.20
7433;BME280;32233;49.500;7.764;2023-04-21T12:32:41;97853.31;;;23.22;35.86
7433;BME280;32233;49.500;7.764;2023-04-21T12:35:08;97841.31;;;22.82;37.22
7433;BME280;32233;49.500;7.764;2023-04-21T12:37:35;97840.66;;;23.64;34.93
7433;BME280;32233;49.500;7.764;2023-04-21T12:40:02;97845.09;;;24.10;34.22
7433;BME280;32233;49.500;7.764;2023-04-21T12:42:28;97839.34;;;23.75;34.70
7433;BME280;32233;49.500;7.764;2023-04-21T12:44:55;97841.38;;;24.19;34.79
7433;BME280;32233;49.500;7.764;2023-04-21T12:47:22;97837.81;;;24.10;33.18
7433;BME280;32233;49.500;7.764;2023-04-21T12:49:48;97840.50;;;24.10;35.00
7433;BME280;32233;49.500;7.764;2023-04-21T12:52:15;97856.56;;;22.72;35.28
7433;BME280;32233;49.500;7.764;2023-04-21T12:54:41;97849.19;;;21.65;38.04
7433;BME280;32233;49.500;7.764;2023-04-21T12:57:09;97847.44;;;23.34;34.23
7433;BME280;32233;49.500;7.764;2023-04-21T12:59:36;97842.28;;;22.58;35.90
7433;BME280;32233;49.500;7.764;2023-04-21T13:02:03;97834.31;;;22.99;36.74
7433;BME280;32233;49.500;7.764;2023-04-21T13:04:29;97839.16;;;22.32;36.32
7433;BME280;32233;49.500;7.764;2023-04-21T13:06:57;97829.78;;;23.28;34.85
7433;BME280;32233;49.500;7.764;2023-04-21T13:09:24;97834.06;;;24.56;33.50
7433;BME280;32233;49.500;7.764;2023-04-21T13:11:50;97827.16;;;24.41;31.59
7433;BME280;32233;49.500;7.764;2023-04-21T13:14:17;97827.41;;;24.04;33.06